createdAt,value
2018-12-09T00:01:27.126Z,25.60
2018-12-09T00:03:34.086Z,25.44
2018-12-09T00:05:41.025Z,25.47
2018-12-09T00:07:47.862Z,25.39
2018-12-09T00:09:54.734Z,25.33
2018-12-09T00:12:01.358Z,25.30
2018-12-09T00:14:08.818Z,25.33
2018-12-09T00:16:16.355Z,25.23
2018-12-09T00:18:23.271Z,25.16
2018-12-09T00:20:30.948Z,24.88
2018-12-09T00:22:38.903Z,25.13
2018-12-09T00:24:45.922Z,25.13
2018-12-09T00:26:52.610Z,25.10
2018-12-09T00:28:59.742Z,25.17
2018-12-09T00:31:06.501Z,25.08
2018-12-09T00:33:13.453Z,24.85
2018-12-09T00:35:20.150Z,24.77
2018-12-09T00:37:27.049Z,24.64
2018-12-09T00:39:33.865Z,24.62
2018-12-09T00:41:40.635Z,24.55
2018-12-09T00:43:47.770Z,24.61
2018-12-09T00:45:54.552Z,24.55
2018-12-09T00:48:01.492Z,24.48
2018-12-09T00:50:08.830Z,24.46
2018-12-09T00:52:15.747Z,24.35
2018-12-09T00:54:22.636Z,24.44
2018-12-09T00:56:29.591Z,24.40
2018-12-09T00:58:36.392Z,24.38
2018-12-09T01:00:43.512Z,24.32
2018-12-09T01:02:50.659Z,24.34
2018-12-09T01:04:57.807Z,24.47
2018-12-09T01:07:04.819Z,24.44
2018-12-09T01:09:11.526Z,24.37
2018-12-09T01:11:18.888Z,24.25
2018-12-09T01:13:26.480Z,24.37
2018-12-09T01:15:33.298Z,24.51
2018-12-09T01:17:40.389Z,24.42
2018-12-09T01:19:47.154Z,24.43
2018-12-09T01:21:55.154Z,24.42
2018-12-09T01:24:01.977Z,24.36
2018-12-09T01:26:09.184Z,24.17
2018-12-09T01:28:15.890Z,24.10
2018-12-09T01:30:22.646Z,23.92
2018-12-09T01:32:29.726Z,24.05
2018-12-09T01:34:36.515Z,24.14
2018-12-09T01:36:43.430Z,24.10
2018-12-09T01:38:50.226Z,24.06
2018-12-09T01:40:57.612Z,24.14
2018-12-09T01:43:04.309Z,24.22
2018-12-09T01:45:11.423Z,24.19
2018-12-09T01:47:18.481Z,24.25
2018-12-09T01:49:25.553Z,24.19
2018-12-09T01:51:32.961Z,24.34
2018-12-09T01:54:43.193Z,24.35
2018-12-09T01:56:50.506Z,24.24
2018-12-09T01:58:57.351Z,24.16
2018-12-09T02:01:04.285Z,24.26
2018-12-09T02:03:11.058Z,24.26
2018-12-09T02:05:18.114Z,24.18
2018-12-09T02:07:25.074Z,24.22
2018-12-09T02:09:32.655Z,23.97
2018-12-09T02:11:40.296Z,23.93
2018-12-09T02:13:47.279Z,23.87
2018-12-09T02:15:54.221Z,23.90
2018-12-09T02:18:01.082Z,23.87
2018-12-09T02:20:09.106Z,23.90
2018-12-09T02:22:16.004Z,23.79
2018-12-09T02:24:23.094Z,23.85
2018-12-09T02:26:30.130Z,23.84
2018-12-09T02:28:37.038Z,23.74
2018-12-09T02:30:43.764Z,23.62
2018-12-09T02:32:51.076Z,23.49
2018-12-09T02:34:58.183Z,23.36
2018-12-09T02:37:04.881Z,23.31
2018-12-09T02:39:12.991Z,23.24
2018-12-09T02:41:19.701Z,23.22
2018-12-09T02:43:26.705Z,23.13
2018-12-09T02:45:34.267Z,23.21
2018-12-09T02:47:41.104Z,23.26
2018-12-09T02:49:47.993Z,23.14
2018-12-09T02:51:55.081Z,23.05
2018-12-09T02:54:02.473Z,23.02
2018-12-09T02:56:09.296Z,23.11
2018-12-09T02:58:16.266Z,23.18
2018-12-09T03:00:23.160Z,23.19
2018-12-09T03:02:30.629Z,23.27
2018-12-09T03:04:37.672Z,23.22
2018-12-09T03:06:44.624Z,23.23
2018-12-09T03:08:51.821Z,23.24
2018-12-09T03:10:58.619Z,23.31
2018-12-09T03:13:05.592Z,23.35
2018-12-09T03:15:12.717Z,23.44
2018-12-09T03:17:19.946Z,23.59
2018-12-09T03:19:27.096Z,23.71
2018-12-09T03:21:35.066Z,23.83
2018-12-09T03:23:42.051Z,23.96
2018-12-09T03:25:49.236Z,24.07
2018-12-09T03:27:55.862Z,24.19
2018-12-09T03:30:03.225Z,24.30
2018-12-09T03:32:10.340Z,24.24
2018-12-09T03:34:17.339Z,24.12
2018-12-09T03:36:24.453Z,23.91
2018-12-09T03:38:31.637Z,23.84
2018-12-09T03:40:38.735Z,23.78
2018-12-09T03:42:45.741Z,23.65
2018-12-09T03:44:53.260Z,23.58
2018-12-09T03:47:00.913Z,23.60
2018-12-09T03:49:07.782Z,23.66
2018-12-09T03:51:14.845Z,23.57
2018-12-09T03:53:22.016Z,23.60
2018-12-09T03:55:28.899Z,23.46
2018-12-09T03:57:35.572Z,23.15
2018-12-09T03:59:42.437Z,23.40
2018-12-09T04:01:49.321Z,23.03
2018-12-09T04:03:56.633Z,23.49
2018-12-09T04:06:03.392Z,23.56
2018-12-09T04:08:10.366Z,23.73
2018-12-09T04:10:17.146Z,23.90
2018-12-09T04:12:24.023Z,24.05
2018-12-09T04:14:31.410Z,24.21
2018-12-09T04:16:38.703Z,24.33
2018-12-09T04:18:45.483Z,24.25
2018-12-09T04:20:52.325Z,24.09
2018-12-09T04:22:59.004Z,23.94
2018-12-09T04:25:06.337Z,23.87
2018-12-09T04:27:13.230Z,23.73
2018-12-09T04:29:20.292Z,23.73
2018-12-09T04:31:27.154Z,23.67
2018-12-09T14:44:55.758Z,22.30
2018-12-09T14:47:02.657Z,22.62
2018-12-09T14:49:10.401Z,22.96
2018-12-09T14:51:17.918Z,23.28
2018-12-09T14:53:24.768Z,23.46
2018-12-09T14:55:31.606Z,23.62
2018-12-09T14:57:38.461Z,23.79
2018-12-09T14:59:45.502Z,23.90
2018-12-09T15:01:52.610Z,23.99
2018-12-09T15:03:59.997Z,24.13
2018-12-09T15:06:07.222Z,24.35
2018-12-09T15:08:14.278Z,24.58
2018-12-09T15:10:21.262Z,24.82
2018-12-09T15:12:29.337Z,24.96
2018-12-09T15:14:36.482Z,25.17
2018-12-09T15:16:43.286Z,25.29
2018-12-09T15:18:50.695Z,25.44
2018-12-09T15:20:57.417Z,25.54
2018-12-09T15:23:04.201Z,25.43
2018-12-09T15:40:37.897Z,23.47
2018-12-09T15:42:44.606Z,23.85
2018-12-09T15:44:51.748Z,24.34
2018-12-09T15:46:58.687Z,24.77
2018-12-09T15:49:05.726Z,25.06
2018-12-09T15:51:12.869Z,25.38
2018-12-09T15:53:19.534Z,25.65
2018-12-09T15:55:26.397Z,25.84
2018-12-09T15:57:33.162Z,26.00
2018-12-09T15:59:40.143Z,26.16
2018-12-09T16:01:46.946Z,26.16
2018-12-09T16:03:53.775Z,26.07
2018-12-09T16:06:00.616Z,25.98
2018-12-09T16:08:07.740Z,25.90
2018-12-09T16:10:14.795Z,25.89
2018-12-09T16:12:21.742Z,25.67
2018-12-09T16:14:28.500Z,25.58
2018-12-09T16:16:35.465Z,25.49
2018-12-09T16:18:42.528Z,25.49
2018-12-09T16:20:49.590Z,25.39
2018-12-09T16:22:56.438Z,25.34
2018-12-09T16:25:03.329Z,25.29
2018-12-09T16:27:10.428Z,25.41
2018-12-09T16:29:17.974Z,25.62
2018-12-09T16:31:25.107Z,25.77
2018-12-09T16:33:32.261Z,25.99
2018-12-09T16:35:39.170Z,26.09
2018-12-09T16:37:46.115Z,26.23
2018-12-09T16:39:52.853Z,26.41
2018-12-09T16:41:59.613Z,26.42
2018-12-09T16:44:06.968Z,26.40
2018-12-09T16:46:14.074Z,26.32
2018-12-09T16:48:20.988Z,26.24
2018-12-09T16:50:28.133Z,25.88
2018-12-09T16:52:35.069Z,25.95
2018-12-09T16:54:42.005Z,25.89
2018-12-09T16:56:48.871Z,25.73
2018-12-09T16:58:55.784Z,25.65
2018-12-09T17:01:02.582Z,25.64
2018-12-09T17:03:09.449Z,25.54
2018-12-09T17:05:16.533Z,25.46
2018-12-09T17:07:23.622Z,25.40
2018-12-09T17:09:30.629Z,25.36
2018-12-09T17:11:37.494Z,25.38
2018-12-09T17:13:44.483Z,25.28
2018-12-09T17:15:51.480Z,25.30
2018-12-09T17:17:58.174Z,25.29
2018-12-09T17:20:06.399Z,25.25
2018-12-09T17:22:14.530Z,25.22
2018-12-09T17:24:21.680Z,25.18
2018-12-09T17:26:28.680Z,25.30
2018-12-09T17:28:36.132Z,25.58
2018-12-09T17:30:42.864Z,25.77
2018-12-09T17:32:49.670Z,25.99
2018-12-09T17:34:56.860Z,26.17
2018-12-09T17:37:03.611Z,26.34
2018-12-09T17:39:10.609Z,26.57
2018-12-09T17:41:24.757Z,26.70
2018-12-09T17:43:26.185Z,26.75
2018-12-09T17:45:32.864Z,26.53
2018-12-09T17:47:39.717Z,26.40
2018-12-09T17:49:46.407Z,26.22
2018-12-09T17:51:53.003Z,26.13
2018-12-09T17:53:59.649Z,26.02
2018-12-09T17:56:06.441Z,25.89
2018-12-09T17:58:13.293Z,25.85
2018-12-09T18:00:20.167Z,25.73
2018-12-09T18:02:26.934Z,25.69
2018-12-09T18:04:33.949Z,25.63
2018-12-09T18:06:41.065Z,25.53
2018-12-09T18:08:48.012Z,25.53
2018-12-09T18:10:55.357Z,25.56
2018-12-09T18:13:02.164Z,25.53
2018-12-09T18:15:12.701Z,25.47
2018-12-09T18:17:19.512Z,25.45
2018-12-09T18:19:26.525Z,25.43
2018-12-09T18:21:33.465Z,25.43
2018-12-09T18:23:40.596Z,25.40
2018-12-09T18:25:47.353Z,25.41
2018-12-09T18:27:54.193Z,25.38
2018-12-09T18:30:01.109Z,25.43
2018-12-09T18:32:08.066Z,25.72
2018-12-09T18:34:14.923Z,25.99
2018-12-09T18:36:21.955Z,26.22
2018-12-09T18:38:29.422Z,26.42
2018-12-09T18:40:36.207Z,26.62
2018-12-09T18:42:42.886Z,26.79
2018-12-09T18:44:49.886Z,26.95
2018-12-09T18:46:56.829Z,26.85
2018-12-09T18:49:03.705Z,26.74
2018-12-09T18:51:10.645Z,26.51
2018-12-09T18:53:17.641Z,26.44
2018-12-09T18:55:24.507Z,26.34
2018-12-09T18:57:31.497Z,26.21
2018-12-09T18:59:38.214Z,26.13
2018-12-09T19:01:45.263Z,26.01
2018-12-09T19:03:51.955Z,25.99
2018-12-09T19:05:58.791Z,25.94
2018-12-09T19:08:05.831Z,25.89
2018-12-09T19:10:12.722Z,25.93
2018-12-09T19:12:19.744Z,25.87
2018-12-09T19:14:26.641Z,25.84
2018-12-09T19:16:33.301Z,25.77
2018-12-09T19:18:39.994Z,25.79
2018-12-09T19:20:46.600Z,25.64
2018-12-09T19:22:53.454Z,25.41
2018-12-09T19:25:00.289Z,25.56
2018-12-09T19:27:07.245Z,25.50
2018-12-09T19:29:14.006Z,25.46
2018-12-09T19:31:20.653Z,25.46
2018-12-09T19:33:27.493Z,25.41
2018-12-09T19:35:34.302Z,25.56
2018-12-09T19:37:41.198Z,25.85
2018-12-09T19:39:48.044Z,26.07
2018-12-09T19:41:54.996Z,26.24
2018-12-09T19:44:01.679Z,26.40
2018-12-09T19:46:08.378Z,26.63
2018-12-09T19:48:15.078Z,26.78
2018-12-09T19:50:21.873Z,26.88
2018-12-09T19:52:28.907Z,26.84
2018-12-09T19:54:35.815Z,26.74
2018-12-09T19:56:42.652Z,26.62
2018-12-09T19:58:49.520Z,26.45
2018-12-09T20:00:56.458Z,26.36
2018-12-09T20:03:04.010Z,26.18
2018-12-09T20:05:12.033Z,26.19
2018-12-09T20:07:18.776Z,26.18
2018-12-09T20:09:25.777Z,26.11
2018-12-09T20:11:32.529Z,26.01
2018-12-09T20:13:39.200Z,25.84
2018-12-09T20:15:46.106Z,25.93
2018-12-09T20:17:52.820Z,25.84
2018-12-09T20:19:59.595Z,25.80
2018-12-09T20:22:06.630Z,25.81
2018-12-09T20:24:13.638Z,25.76
2018-12-09T20:26:20.690Z,25.71
2018-12-09T20:28:28.939Z,25.68
2018-12-09T20:30:35.702Z,25.56
2018-12-09T20:32:42.477Z,25.49
2018-12-09T20:34:49.453Z,25.47
2018-12-09T20:36:56.334Z,25.32
2018-12-09T20:39:03.458Z,25.33
2018-12-09T20:41:10.090Z,25.33
2018-12-09T20:43:17.134Z,25.18
2018-12-09T20:45:24.750Z,25.34
2018-12-09T20:47:31.714Z,25.34
2018-12-09T20:49:38.031Z,25.35
2018-12-09T20:51:45.006Z,25.38
2018-12-09T20:53:51.743Z,25.33
2018-12-09T20:55:58.850Z,25.30
2018-12-09T20:58:06.097Z,25.23
2018-12-09T21:00:13.263Z,25.21
2018-12-09T21:02:20.199Z,25.14
2018-12-09T21:04:27.394Z,25.10
2018-12-09T21:06:34.177Z,24.93
2018-12-09T21:08:41.080Z,24.95
2018-12-09T21:10:47.910Z,25.00
2018-12-09T21:12:55.126Z,24.91
2018-12-09T21:15:02.058Z,24.79
2018-12-09T21:17:08.920Z,24.86
2018-12-09T21:19:16.008Z,24.63
2018-12-09T21:21:22.837Z,24.49
2018-12-09T21:23:29.756Z,24.46
2018-12-09T21:25:36.632Z,24.46
2018-12-09T21:27:43.679Z,24.37
2018-12-09T21:29:50.450Z,24.30
2018-12-09T21:31:57.454Z,24.31
2018-12-09T21:34:04.489Z,24.25
2018-12-09T21:36:11.454Z,24.20
2018-12-09T21:38:18.200Z,24.19
2018-12-09T21:40:25.122Z,24.16
2018-12-09T21:42:31.922Z,24.12
2018-12-09T21:44:38.960Z,24.13
2018-12-09T21:46:46.021Z,24.14
2018-12-09T21:48:52.802Z,24.14
2018-12-09T21:50:59.627Z,24.04
2018-12-09T21:53:06.521Z,23.97
2018-12-09T21:55:13.389Z,24.02
2018-12-09T21:57:20.185Z,24.01
2018-12-09T21:59:27.010Z,24.17
2018-12-09T22:01:34.200Z,24.12
2018-12-09T22:03:40.779Z,24.16
2018-12-09T22:05:47.662Z,24.21
2018-12-09T22:07:54.606Z,24.23
2018-12-09T22:10:01.330Z,24.20
2018-12-09T22:12:08.018Z,24.21
2018-12-09T22:14:15.063Z,24.17
2018-12-09T22:16:21.990Z,24.07
2018-12-09T22:18:28.908Z,24.08
2018-12-09T22:20:35.897Z,24.12
2018-12-09T22:22:42.974Z,23.97
2018-12-09T22:24:49.596Z,24.01
2018-12-09T22:26:56.646Z,23.96
2018-12-09T22:29:03.525Z,23.91
2018-12-09T22:31:10.194Z,23.93
2018-12-09T22:33:16.822Z,23.92
2018-12-09T22:35:23.894Z,23.86
2018-12-09T22:37:30.870Z,23.82
2018-12-09T22:39:37.790Z,23.68
2018-12-09T22:41:44.770Z,23.65
2018-12-09T22:43:51.582Z,23.64
2018-12-09T22:45:58.494Z,23.62
2018-12-09T22:48:05.684Z,23.62
2018-12-09T22:50:12.515Z,23.64
2018-12-09T22:52:19.848Z,23.63
2018-12-09T22:54:26.562Z,23.59
2018-12-09T22:56:33.346Z,23.46
2018-12-09T22:58:39.832Z,23.59
2018-12-09T23:00:53.249Z,23.50
2018-12-09T23:03:06.397Z,23.43
2018-12-09T23:05:13.337Z,23.48
2018-12-09T23:07:24.670Z,23.37
2018-12-09T23:09:31.427Z,23.34
2018-12-09T23:11:38.483Z,23.38
2018-12-09T23:13:45.338Z,23.35
2018-12-09T23:15:52.229Z,23.28
2018-12-09T23:17:59.385Z,23.34
2018-12-09T23:20:06.433Z,23.32
2018-12-09T23:22:13.358Z,23.28
2018-12-09T23:24:20.344Z,23.22
2018-12-09T23:26:27.061Z,23.22
2018-12-09T23:28:33.973Z,23.19
2018-12-09T23:30:40.623Z,23.17
2018-12-09T23:32:47.534Z,23.14
2018-12-09T23:34:54.316Z,23.12
2018-12-09T23:37:01.207Z,23.14
2018-12-09T23:39:08.788Z,23.11
2018-12-09T23:41:16.390Z,23.17
2018-12-09T23:43:23.245Z,23.21
2018-12-09T23:45:30.059Z,23.21
2018-12-09T23:47:37.081Z,23.16
2018-12-09T23:49:43.947Z,23.09
2018-12-09T23:51:50.831Z,23.03
2018-12-09T23:53:57.631Z,23.02
2018-12-09T23:56:04.397Z,23.02
2018-12-09T23:58:11.502Z,22.91
